createdAt,value
2023-04-16T00:01:01.029Z,75.25
2023-04-16T00:02:04.137Z,75.30
2023-04-16T00:03:07.322Z,75.30
2023-04-16T00:04:10.568Z,75.37
2023-04-16T00:05:13.546Z,75.37
2023-04-16T00:06:16.424Z,75.39
2023-04-16T00:07:19.264Z,75.36
2023-04-16T00:08:22.094Z,75.34
2023-04-16T00:09:24.964Z,75.37
2023-04-16T00:10:27.868Z,75.34
2023-04-16T00:11:30.695Z,75.32
2023-04-16T00:12:33.572Z,75.34
2023-04-16T00:13:36.854Z,75.30
2023-04-16T00:14:39.734Z,75.34
2023-04-16T00:15:42.622Z,75.42
2023-04-16T00:16:45.577Z,75.50
2023-04-16T00:17:48.479Z,75.44
2023-04-16T00:18:51.439Z,75.43
2023-04-16T00:19:54.469Z,75.40
2023-04-16T00:20:57.363Z,75.36
2023-04-16T00:22:00.175Z,75.40
2023-04-16T00:23:03.020Z,75.37
2023-04-16T00:24:06.082Z,75.42
2023-04-16T00:25:09.190Z,75.43
2023-04-16T00:26:12.427Z,75.53
2023-04-16T00:27:15.253Z,75.52
2023-04-16T00:28:18.205Z,75.51
2023-04-16T00:29:21.113Z,75.52
2023-04-16T00:30:24.187Z,75.63
2023-04-16T00:31:31.424Z,75.60
2023-04-16T00:32:34.351Z,75.46
2023-04-16T00:33:37.274Z,75.35
2023-04-16T00:34:40.092Z,75.11
2023-04-16T00:35:42.977Z,74.96
2023-04-16T00:36:45.800Z,74.90
2023-04-16T00:37:48.661Z,74.89
2023-04-16T00:38:52.761Z,74.97
2023-04-16T00:39:55.618Z,75.19
2023-04-16T00:41:01.358Z,75.17
2023-04-16T00:42:04.346Z,75.26
2023-04-16T00:43:07.416Z,75.40
2023-04-16T00:44:10.371Z,75.41
2023-04-16T00:45:13.277Z,75.47
2023-04-16T00:46:17.885Z,75.42
2023-04-16T00:47:21.796Z,75.32
2023-04-16T00:48:25.145Z,75.29
2023-04-16T00:49:28.359Z,75.33
2023-04-16T00:50:31.314Z,75.35
2023-04-16T00:51:34.451Z,75.35
2023-04-16T00:52:37.490Z,75.42
2023-04-16T00:53:40.486Z,75.34
2023-04-16T00:54:43.480Z,75.20
2023-04-16T00:55:47.239Z,75.05
2023-04-16T00:56:50.415Z,74.76
2023-04-16T00:57:53.236Z,74.84
2023-04-16T00:58:57.684Z,74.77
2023-04-16T01:00:00.586Z,74.56
2023-04-16T01:01:04.254Z,74.53
2023-04-16T01:02:07.268Z,74.77
2023-04-16T01:04:13.689Z,74.77
2023-04-16T01:05:16.805Z,74.84
2023-04-16T01:06:20.110Z,74.97
2023-04-16T01:07:23.060Z,75.19
2023-04-16T01:08:26.334Z,75.35
2023-04-16T01:09:29.209Z,75.34
2023-04-16T01:10:32.209Z,75.33
2023-04-16T01:11:35.076Z,75.25
2023-04-16T01:12:37.868Z,75.15
2023-04-16T01:13:40.825Z,75.25
2023-04-16T01:14:43.756Z,75.25
2023-04-16T01:15:46.655Z,75.17
2023-04-16T01:16:49.555Z,75.24
2023-04-16T01:17:52.449Z,75.25
2023-04-16T01:18:55.756Z,75.30
2023-04-16T01:20:02.076Z,75.08
2023-04-16T01:21:05.940Z,75.09
2023-04-16T01:22:08.788Z,75.45
2023-04-16T01:23:12.795Z,75.48
2023-04-16T01:24:15.632Z,75.31
2023-04-16T01:25:18.529Z,75.15
2023-04-16T01:26:21.353Z,75.11
2023-04-16T01:27:24.213Z,74.91
2023-04-16T01:28:27.232Z,74.85
2023-04-16T01:29:30.105Z,75.11
2023-04-16T01:30:33.052Z,75.20
2023-04-16T01:31:35.925Z,75.25
2023-04-16T01:32:38.977Z,75.42
2023-04-16T01:33:41.968Z,75.45
2023-04-16T01:34:44.844Z,75.75
2023-04-16T01:35:47.677Z,75.90
2023-04-16T01:36:50.495Z,75.96
2023-04-16T01:37:54.950Z,76.01
2023-04-16T01:38:57.986Z,76.21
2023-04-16T01:40:00.997Z,76.28
2023-04-16T01:41:03.865Z,76.27
2023-04-16T01:42:06.815Z,76.30
2023-04-16T01:43:09.780Z,76.25
2023-04-16T01:44:12.730Z,76.17
2023-04-16T01:45:15.556Z,76.12
2023-04-16T01:46:33.635Z,76.15
2023-04-16T01:47:36.531Z,76.11
2023-04-16T01:48:39.379Z,76.06
2023-04-16T01:49:42.479Z,75.91
2023-04-16T01:50:45.402Z,75.81
2023-04-16T01:51:48.413Z,75.70
2023-04-16T01:52:51.270Z,75.61
2023-04-16T01:53:54.323Z,75.67
2023-04-16T01:54:57.302Z,75.85
2023-04-16T01:56:00.155Z,75.90
2023-04-16T01:57:03.177Z,75.98
2023-04-16T01:58:06.035Z,76.02
2023-04-16T01:59:09.219Z,76.08
2023-04-16T02:00:12.655Z,76.18
2023-04-16T02:01:15.750Z,76.44
2023-04-16T02:02:18.911Z,76.59
2023-04-16T02:03:21.978Z,76.55
2023-04-16T02:04:24.873Z,76.61
2023-04-16T02:05:27.744Z,76.56
2023-04-16T02:06:30.620Z,76.60
2023-04-16T02:07:33.474Z,76.55
2023-04-16T02:08:37.362Z,76.58
2023-04-16T02:09:41.578Z,76.62
2023-04-16T02:10:46.832Z,76.69
2023-04-16T02:11:49.730Z,76.56
2023-04-16T02:12:52.571Z,76.46
2023-04-16T02:13:55.440Z,76.42
2023-04-16T02:14:58.253Z,76.49
2023-04-16T02:16:01.225Z,76.50
2023-04-16T02:17:04.257Z,76.52
2023-04-16T02:18:07.145Z,76.41
2023-04-16T02:19:10.251Z,76.41
2023-04-16T02:20:13.655Z,76.45
2023-04-16T02:21:16.530Z,76.46
2023-04-16T02:22:19.389Z,76.32
2023-04-16T02:23:22.234Z,76.44
2023-04-16T02:24:25.048Z,76.46
2023-04-16T02:25:28.052Z,76.60
2023-04-16T02:26:31.054Z,76.72
2023-04-16T02:27:33.897Z,76.42
2023-04-16T02:28:36.710Z,76.39
2023-04-16T02:29:39.595Z,76.29
2023-04-16T02:30:43.088Z,76.31
2023-04-16T02:31:46.086Z,76.52
2023-04-16T02:32:49.072Z,76.79
2023-04-16T02:33:52.069Z,76.94
2023-04-16T02:34:54.959Z,76.90
2023-04-16T02:35:57.773Z,76.82
2023-04-16T02:37:00.678Z,76.90
2023-04-16T02:38:04.662Z,77.03
2023-04-16T02:39:07.839Z,77.10
2023-04-16T02:40:11.872Z,77.02
2023-04-16T02:41:14.736Z,76.88
2023-04-16T02:42:17.817Z,76.93
2023-04-16T02:43:20.710Z,76.90
2023-04-16T02:44:23.628Z,76.89
2023-04-16T02:45:26.683Z,76.85
2023-04-16T02:46:30.294Z,76.76
2023-04-16T02:47:33.693Z,76.74
2023-04-16T02:48:36.911Z,76.89
2023-04-16T02:49:39.755Z,77.00
2023-04-16T02:50:42.600Z,77.07
2023-04-16T02:51:45.509Z,77.09
2023-04-16T02:52:48.424Z,77.12
2023-04-16T02:53:51.308Z,77.06
2023-04-16T02:54:54.180Z,77.13
2023-04-16T02:55:57.371Z,77.29
2023-04-16T02:57:00.200Z,77.42
2023-04-16T02:58:03.253Z,77.47
2023-04-16T02:59:06.471Z,77.45
2023-04-16T03:00:10.071Z,77.44
2023-04-16T03:01:13.089Z,77.49
2023-04-16T03:02:15.990Z,77.57
2023-04-16T03:03:19.360Z,77.60
2023-04-16T03:04:22.514Z,77.72
2023-04-16T03:05:25.396Z,77.70
2023-04-16T03:06:28.365Z,77.61
2023-04-16T03:07:31.461Z,77.37
2023-04-16T03:08:34.315Z,77.35
2023-04-16T03:09:37.171Z,77.23
2023-04-16T03:10:40.045Z,77.18
2023-04-16T03:11:42.863Z,77.04
2023-04-16T03:12:45.762Z,76.83
2023-04-16T03:13:48.817Z,76.78
2023-04-16T03:14:54.572Z,76.79
2023-04-16T03:15:57.517Z,76.84
2023-04-16T03:17:00.398Z,76.82
2023-04-16T03:18:03.676Z,76.94
2023-04-16T03:19:06.961Z,76.94
2023-04-16T03:20:11.299Z,76.98
2023-04-16T03:21:14.125Z,76.98
2023-04-16T03:22:16.990Z,76.93
2023-04-16T03:23:19.975Z,76.93
2023-04-16T03:24:23.010Z,76.95
2023-04-16T03:25:25.894Z,76.98
2023-04-16T03:26:28.711Z,77.01
2023-04-16T03:27:31.666Z,77.13
2023-04-16T03:28:34.597Z,77.12
2023-04-16T03:29:40.489Z,77.17
2023-04-16T03:30:43.467Z,77.23
2023-04-16T03:31:46.293Z,77.28
2023-04-16T03:32:50.719Z,77.36
2023-04-16T03:33:54.014Z,77.26
2023-04-16T03:34:56.918Z,77.19
2023-04-16T03:36:00.404Z,77.22
2023-04-16T03:37:03.240Z,77.29
2023-04-16T03:38:06.121Z,77.37
2023-04-16T03:39:09.131Z,77.34
2023-04-16T03:40:12.564Z,77.28
2023-04-16T03:41:15.504Z,77.30
2023-04-16T03:42:18.473Z,77.23
2023-04-16T03:43:21.340Z,77.29
2023-04-16T03:44:24.276Z,77.43
2023-04-16T03:45:27.116Z,77.46
2023-04-16T03:46:30.172Z,77.48
2023-04-16T03:47:33.059Z,77.42
2023-04-16T03:48:35.938Z,77.41
2023-04-16T03:49:38.772Z,77.38
2023-04-16T03:50:41.666Z,77.33
2023-04-16T03:51:44.535Z,77.35
2023-04-16T03:52:48.249Z,77.35
2023-04-16T03:53:51.128Z,77.35
2023-04-16T03:54:54.079Z,77.46
2023-04-16T03:55:56.970Z,77.67
2023-04-16T03:56:59.963Z,77.63
2023-04-16T03:58:04.545Z,77.65
2023-04-16T03:59:07.480Z,77.57
2023-04-16T04:00:10.682Z,77.53
2023-04-16T04:01:13.531Z,77.65
2023-04-16T04:02:16.474Z,77.54
2023-04-16T04:03:20.022Z,77.37
2023-04-16T04:04:23.254Z,77.25
2023-04-16T04:05:26.254Z,77.21
2023-04-16T04:06:29.074Z,77.17
2023-04-16T04:07:31.923Z,77.18
2023-04-16T04:08:37.008Z,77.17
2023-04-16T04:09:39.815Z,77.35
2023-04-16T04:10:42.610Z,77.39
2023-04-16T04:11:45.453Z,77.52
2023-04-16T04:12:48.267Z,77.64
2023-04-16T04:13:51.189Z,77.80
2023-04-16T04:14:54.237Z,77.87
2023-04-16T04:15:57.167Z,77.98
2023-04-16T04:17:00.003Z,78.06
2023-04-16T04:18:02.905Z,78.25
2023-04-16T04:19:05.790Z,78.48
2023-04-16T04:20:09.059Z,78.53
2023-04-16T04:21:12.163Z,78.56
2023-04-16T04:22:15.025Z,78.59
2023-04-16T04:23:17.894Z,78.59
2023-04-16T04:24:20.710Z,78.56
2023-04-16T04:25:23.663Z,78.45
2023-04-16T04:26:26.610Z,78.39
2023-04-16T04:27:29.497Z,78.32
2023-04-16T04:28:35.697Z,78.23
2023-04-16T04:29:38.633Z,78.13
2023-04-16T04:30:41.490Z,78.12
2023-04-16T04:31:44.360Z,78.25
2023-04-16T04:32:47.397Z,78.19
2023-04-16T04:33:50.262Z,78.23
2023-04-16T04:34:53.195Z,78.23
2023-04-16T04:35:57.038Z,78.20
2023-04-16T04:37:00.332Z,78.19
2023-04-16T04:38:04.180Z,78.14
2023-04-16T04:39:07.209Z,78.25
2023-04-16T04:40:10.965Z,78.25
2023-04-16T04:41:13.805Z,78.30
2023-04-16T04:42:19.462Z,78.34
2023-04-16T04:43:22.344Z,78.43
2023-04-16T04:44:25.165Z,78.59
2023-04-16T04:45:30.362Z,78.60
2023-04-16T04:46:34.747Z,78.63
2023-04-16T04:47:37.585Z,78.61
2023-04-16T04:48:40.479Z,78.63
2023-04-16T04:49:43.756Z,78.61
2023-04-16T04:50:47.509Z,78.65
2023-04-16T04:51:50.692Z,78.68
2023-04-16T04:52:53.524Z,78.88
2023-04-16T04:53:56.357Z,78.85
2023-04-16T04:54:59.197Z,78.95
2023-04-16T04:56:11.590Z,78.94
2023-04-16T04:57:15.482Z,78.97
2023-04-16T04:58:18.339Z,79.01
2023-04-16T04:59:22.254Z,79.07
2023-04-16T05:00:25.096Z,79.10
2023-04-16T05:01:27.971Z,79.01
2023-04-16T05:02:30.975Z,78.98
2023-04-16T05:03:34.049Z,78.94
2023-04-16T05:04:36.991Z,78.92
2023-04-16T05:05:42.911Z,78.89
2023-04-16T05:06:45.735Z,78.84
2023-04-16T05:07:48.578Z,78.77
2023-04-16T05:08:51.516Z,78.80
2023-04-16T05:09:54.773Z,78.81
2023-04-16T05:10:57.583Z,78.78
2023-04-16T05:12:00.565Z,78.79
2023-04-16T05:13:03.667Z,78.85
2023-04-16T05:14:06.566Z,78.93
2023-04-16T05:15:10.117Z,78.95
2023-04-16T05:16:13.007Z,78.98
2023-04-16T05:17:16.012Z,79.01
2023-04-16T05:18:18.831Z,79.02
2023-04-16T05:19:21.796Z,79.09
2023-04-16T05:20:28.095Z,79.06
2023-04-16T05:21:31.022Z,79.08
2023-04-16T05:22:34.162Z,79.05
2023-04-16T05:23:36.996Z,79.03
2023-04-16T05:24:39.899Z,79.00
2023-04-16T05:25:42.723Z,79.07
2023-04-16T05:26:45.590Z,79.04
2023-04-16T05:27:48.473Z,79.09
2023-04-16T05:28:51.364Z,79.26
2023-04-16T05:29:54.200Z,79.26
2023-04-16T05:30:57.150Z,79.28
2023-04-16T05:32:00.064Z,79.28
2023-04-16T05:33:02.947Z,79.37
2023-04-16T05:34:05.738Z,79.37
2023-04-16T05:35:08.936Z,79.36
2023-04-16T05:36:11.926Z,79.31
2023-04-16T05:37:14.784Z,79.28
2023-04-16T05:38:17.627Z,79.22
2023-04-16T05:39:21.165Z,79.16
2023-04-16T05:40:24.008Z,79.22
2023-04-16T05:41:27.054Z,79.21
2023-04-16T05:42:29.903Z,79.20
2023-04-16T05:43:33.040Z,79.19
2023-04-16T05:44:35.889Z,79.11
2023-04-16T05:45:42.272Z,79.06
2023-04-16T05:46:45.139Z,78.95
2023-04-16T05:47:48.333Z,78.95
2023-04-16T05:48:52.327Z,78.92
2023-04-16T05:49:55.147Z,79.03
2023-04-16T05:50:57.965Z,79.11
2023-04-16T05:52:00.993Z,79.23
2023-04-16T05:53:07.160Z,79.38
2023-04-16T05:54:10.023Z,79.43
2023-04-16T05:55:12.968Z,79.66
2023-04-16T05:56:15.788Z,79.65
2023-04-16T05:57:18.616Z,79.59
2023-04-16T05:58:21.513Z,79.60
2023-04-16T05:59:24.442Z,79.54
2023-04-16T06:00:28.470Z,79.59
2023-04-16T06:01:32.813Z,79.55
2023-04-16T06:02:37.279Z,79.50
2023-04-16T06:03:40.430Z,79.40
2023-04-16T06:04:43.328Z,79.32
2023-04-16T06:05:46.402Z,79.28
2023-04-16T06:06:49.334Z,79.28
2023-04-16T06:07:52.195Z,79.24
2023-04-16T06:08:55.040Z,79.27
2023-04-16T06:09:58.002Z,79.29
2023-04-16T06:11:00.904Z,79.43
2023-04-16T06:12:03.768Z,79.43
2023-04-16T06:13:06.791Z,79.54
2023-04-16T06:14:09.800Z,79.77
2023-04-16T06:15:12.897Z,79.77
2023-04-16T06:16:15.749Z,79.81
2023-04-16T06:17:18.666Z,79.76
2023-04-16T06:18:21.479Z,79.80
2023-04-16T06:19:24.410Z,79.86
2023-04-16T06:20:27.374Z,79.88
2023-04-16T06:21:30.478Z,80.01
2023-04-16T06:22:33.377Z,80.16
2023-04-16T06:23:36.244Z,80.18
2023-04-16T06:24:39.205Z,80.33
2023-04-16T06:25:42.054Z,80.48
2023-04-16T06:26:44.964Z,80.54
2023-04-16T06:27:47.820Z,80.58
2023-04-16T06:28:51.518Z,80.53
2023-04-16T06:29:54.421Z,80.58
2023-04-16T06:30:57.451Z,80.73
2023-04-16T06:32:00.424Z,80.90
2023-04-16T06:33:03.343Z,80.96
2023-04-16T06:34:06.235Z,80.83
2023-04-16T06:35:09.525Z,80.70
2023-04-16T06:36:12.946Z,80.66
2023-04-16T06:37:16.277Z,80.58
2023-04-16T06:38:19.928Z,80.67
2023-04-16T06:39:23.155Z,80.66
2023-04-16T06:40:26.117Z,80.65
2023-04-16T06:41:29.944Z,80.62
2023-04-16T06:42:32.868Z,80.63
2023-04-16T06:43:36.112Z,80.66
2023-04-16T06:44:39.215Z,80.55
2023-04-16T06:45:43.110Z,80.33
2023-04-16T06:46:45.984Z,80.47
2023-04-16T06:47:49.364Z,80.31
2023-04-16T06:48:52.212Z,80.19
2023-04-16T06:49:55.067Z,80.15
2023-04-16T06:50:58.068Z,80.10
2023-04-16T06:52:00.965Z,79.78
2023-04-16T06:53:03.810Z,79.80
2023-04-16T06:54:06.719Z,79.90
2023-04-16T06:55:11.131Z,79.91
2023-04-16T06:56:14.032Z,80.02
2023-04-16T06:57:17.573Z,80.05
2023-04-16T06:58:20.401Z,79.97
2023-04-16T06:59:23.258Z,80.01
2023-04-16T07:00:26.123Z,79.93
2023-04-16T07:01:29.982Z,79.84
2023-04-16T07:02:32.997Z,79.77
2023-04-16T07:03:36.169Z,79.66
2023-04-16T07:04:39.110Z,79.80
2023-04-16T07:05:41.939Z,79.68
2023-04-16T07:06:44.822Z,79.52
2023-04-16T07:07:47.684Z,79.53
2023-04-16T07:08:50.684Z,79.48
2023-04-16T07:09:53.664Z,79.28
2023-04-16T07:10:56.599Z,78.95
2023-04-16T07:11:59.686Z,78.90
2023-04-16T07:13:03.007Z,78.83
2023-04-16T07:14:06.566Z,78.37
2023-04-16T07:15:11.908Z,78.24
2023-04-16T07:16:14.822Z,78.14
2023-04-16T07:17:17.815Z,78.07
2023-04-16T07:18:20.892Z,78.09
2023-04-16T07:19:24.055Z,78.25
2023-04-16T07:20:26.995Z,78.56
2023-04-16T07:21:29.861Z,78.69
2023-04-16T07:22:32.696Z,79.09
2023-04-16T07:23:35.813Z,78.86
2023-04-16T07:24:38.709Z,78.39
2023-04-16T07:25:43.139Z,77.77
2023-04-16T07:26:45.994Z,77.78
2023-04-16T07:27:48.868Z,77.50
2023-04-16T07:28:51.746Z,77.68
2023-04-16T07:29:56.036Z,77.55
2023-04-16T07:30:59.058Z,77.07
2023-04-16T07:32:02.062Z,76.22
2023-04-16T07:33:05.546Z,76.01
2023-04-16T07:34:08.500Z,75.91
2023-04-16T07:35:11.477Z,75.57
2023-04-16T07:36:14.437Z,75.04
2023-04-16T07:37:17.300Z,75.21
2023-04-16T07:38:20.173Z,75.07
2023-04-16T07:39:22.988Z,74.54
2023-04-16T07:40:26.045Z,73.87
2023-04-16T07:41:30.874Z,73.73
2023-04-16T07:42:33.736Z,73.72
2023-04-16T07:43:36.858Z,73.75
2023-04-16T07:44:40.713Z,74.15
2023-04-16T07:45:43.668Z,72.76
2023-04-16T07:46:47.715Z,72.47
2023-04-16T07:47:50.799Z,72.31
2023-04-16T07:48:53.681Z,71.63
2023-04-16T07:49:56.594Z,71.44
2023-04-16T07:50:59.469Z,70.57
2023-04-16T07:52:02.375Z,70.71
2023-04-16T07:53:05.395Z,70.70
2023-04-16T07:54:08.263Z,69.28
2023-04-16T07:55:11.290Z,68.65
2023-04-16T07:56:14.189Z,68.95
2023-04-16T07:57:17.775Z,68.55
2023-04-16T07:58:20.628Z,68.88
2023-04-16T07:59:24.545Z,69.03
2023-04-16T08:00:27.773Z,69.73
2023-04-16T08:01:30.809Z,70.40
2023-04-16T08:02:34.421Z,67.01
2023-04-16T08:03:37.928Z,66.75
2023-04-16T08:04:41.341Z,67.46
2023-04-16T08:05:44.374Z,68.39
2023-04-16T08:06:47.234Z,68.92
2023-04-16T08:07:50.105Z,69.12
2023-04-16T08:08:52.924Z,69.14
2023-04-16T08:09:56.232Z,69.09
2023-04-16T08:10:59.425Z,69.25
2023-04-16T08:12:02.690Z,67.98
2023-04-16T08:13:07.958Z,68.13
2023-04-16T08:14:10.841Z,68.85
2023-04-16T08:15:13.880Z,68.49
2023-04-16T08:16:16.833Z,68.36
2023-04-16T08:17:19.863Z,68.74
2023-04-16T08:18:22.739Z,68.78
2023-04-16T08:19:25.672Z,69.00
2023-04-16T08:20:28.686Z,68.83
2023-04-16T08:21:32.962Z,68.70
2023-04-16T08:22:35.895Z,68.09
2023-04-16T08:23:39.297Z,68.17
2023-04-16T08:24:42.408Z,68.22
2023-04-16T08:25:45.245Z,68.41
2023-04-16T08:26:48.530Z,68.48
2023-04-16T08:27:51.958Z,68.47
2023-04-16T08:28:55.065Z,68.80
2023-04-16T08:29:57.949Z,68.42
2023-04-16T08:31:00.832Z,68.68
2023-04-16T08:32:03.863Z,68.69
2023-04-16T08:33:07.182Z,68.42
2023-04-16T08:34:12.627Z,68.04
2023-04-16T08:35:15.546Z,67.89
2023-04-16T08:36:18.382Z,67.58
2023-04-16T08:37:21.253Z,67.95
2023-04-16T08:38:24.125Z,67.93
2023-04-16T08:39:27.327Z,68.19
2023-04-16T08:40:31.334Z,68.47
2023-04-16T08:41:38.110Z,68.69
2023-04-16T08:42:45.469Z,68.19
2023-04-16T08:43:52.217Z,67.59
2023-04-16T08:45:30.714Z,67.82
2023-04-16T08:46:38.072Z,67.86
2023-04-16T08:47:42.697Z,68.07
2023-04-16T08:48:50.686Z,68.09
2023-04-16T08:49:58.502Z,68.11
2023-04-16T08:51:02.983Z,68.12
2023-04-16T08:52:08.675Z,67.78
2023-04-16T08:53:15.382Z,67.97
2023-04-16T08:54:33.529Z,67.95
2023-04-16T08:55:50.295Z,67.97
2023-04-16T08:56:53.475Z,67.86
2023-04-16T08:57:59.741Z,67.82
2023-04-16T08:59:06.478Z,67.75
2023-04-16T09:00:11.082Z,67.55
2023-04-16T09:01:14.391Z,67.98
2023-04-16T09:02:17.601Z,68.19
2023-04-16T09:03:23.747Z,68.26
2023-04-16T09:04:30.573Z,68.37
2023-04-16T09:05:34.937Z,68.55
2023-04-16T09:06:38.832Z,67.32
2023-04-16T09:07:43.427Z,67.91
2023-04-16T09:08:49.612Z,67.74
2023-04-16T09:09:54.629Z,67.55
2023-04-16T09:11:00.291Z,67.17
2023-04-16T09:12:03.732Z,66.87
2023-04-16T09:13:06.800Z,67.16
2023-04-16T09:14:12.467Z,66.61
2023-04-16T09:15:15.707Z,65.59
2023-04-16T09:16:18.772Z,66.19
2023-04-16T09:17:21.830Z,65.71
2023-04-16T09:18:25.207Z,66.11
2023-04-16T09:19:28.438Z,66.06
2023-04-16T09:20:31.321Z,65.52
2023-04-16T09:21:34.332Z,65.33
2023-04-16T09:22:38.230Z,65.15
2023-04-16T09:23:41.875Z,65.00
2023-04-16T09:24:44.724Z,65.27
2023-04-16T09:25:47.799Z,62.65
2023-04-16T09:26:53.875Z,62.28
2023-04-16T09:27:56.876Z,62.64
2023-04-16T09:28:59.769Z,63.54
2023-04-16T09:30:03.740Z,63.91
2023-04-16T09:31:24.746Z,63.61
2023-04-16T09:32:29.376Z,63.08
2023-04-16T09:33:34.429Z,62.93
2023-04-16T09:35:01.953Z,61.42
2023-04-16T09:36:04.988Z,61.26
2023-04-16T09:37:32.815Z,61.04
2023-04-16T09:38:52.596Z,60.98
2023-04-16T09:39:58.427Z,60.60
2023-04-16T09:41:09.400Z,59.17
2023-04-16T09:42:13.661Z,58.38
2023-04-16T09:43:19.964Z,58.79
2023-04-16T09:44:35.805Z,58.94
2023-04-16T09:45:56.440Z,57.74
2023-04-16T09:47:08.106Z,57.19
2023-04-16T09:48:10.957Z,54.83
2023-04-16T09:49:18.027Z,55.42
2023-04-16T09:50:21.714Z,56.66
2023-04-16T09:51:24.745Z,55.47
2023-04-16T09:52:27.584Z,53.58
2023-04-16T09:53:32.834Z,54.66
2023-04-16T09:54:35.801Z,55.79
2023-04-16T09:55:38.673Z,55.31
2023-04-16T09:56:43.408Z,54.94
2023-04-16T09:57:46.413Z,56.00
2023-04-16T09:58:49.360Z,55.24
2023-04-16T10:00:11.820Z,55.67
2023-04-16T10:01:14.764Z,56.39
2023-04-16T10:02:18.655Z,55.74
2023-04-16T10:03:33.252Z,57.24
2023-04-16T10:04:49.041Z,56.61
2023-04-16T10:05:55.006Z,56.98
2023-04-16T10:07:07.582Z,56.52
2023-04-16T10:08:14.921Z,56.39
2023-04-16T10:09:17.825Z,56.19
2023-04-16T10:10:21.056Z,55.85
2023-04-16T10:11:24.763Z,57.33
2023-04-16T10:12:28.605Z,54.57
2023-04-16T10:13:32.516Z,55.29
2023-04-16T10:14:36.151Z,56.30
2023-04-16T10:15:40.077Z,56.12
2023-04-16T10:16:43.248Z,56.49
2023-04-16T10:17:47.028Z,56.19
2023-04-16T10:18:50.055Z,56.37
2023-04-16T10:19:53.430Z,56.13
2023-04-16T10:20:56.817Z,56.38
2023-04-16T10:22:00.339Z,56.89
2023-04-16T10:23:03.523Z,56.53
2023-04-16T10:24:06.893Z,56.54
2023-04-16T10:25:11.467Z,56.37
2023-04-16T10:26:14.955Z,56.19
2023-04-16T10:27:18.437Z,56.21
2023-04-16T10:28:22.409Z,55.78
2023-04-16T10:29:27.357Z,55.29
2023-04-16T10:30:30.688Z,56.51
2023-04-16T10:31:33.988Z,56.44
2023-04-16T10:32:38.224Z,57.08
2023-04-16T10:33:43.138Z,56.74
2023-04-16T10:34:46.222Z,56.80
2023-04-16T10:35:57.863Z,55.50
2023-04-16T10:37:09.813Z,56.04
2023-04-16T10:38:29.202Z,56.35
2023-04-16T10:39:32.076Z,56.15
2023-04-16T10:40:36.708Z,56.72
2023-04-16T10:41:40.258Z,56.71
2023-04-16T10:42:43.098Z,56.60
2023-04-16T10:43:47.931Z,55.40
2023-04-16T10:44:50.852Z,55.54
2023-04-16T10:45:55.424Z,55.27
2023-04-16T10:46:58.374Z,55.19
2023-04-16T10:48:05.473Z,55.37
2023-04-16T10:49:16.457Z,55.27
2023-04-16T10:50:19.386Z,53.43
2023-04-16T10:51:30.064Z,54.19
2023-04-16T10:52:32.891Z,53.22
2023-04-16T10:53:38.521Z,54.07
2023-04-16T10:54:42.465Z,53.52
2023-04-16T10:56:01.677Z,53.50
2023-04-16T10:57:07.331Z,52.98
2023-04-16T10:58:30.146Z,53.08
2023-04-16T10:59:37.481Z,53.37
2023-04-16T11:00:53.507Z,53.49
2023-04-16T11:01:58.089Z,53.27
2023-04-16T11:03:01.224Z,54.36
2023-04-16T11:04:22.511Z,53.43
2023-04-16T11:05:25.893Z,53.37
2023-04-16T11:06:29.966Z,54.18
2023-04-16T11:07:38.556Z,55.18
2023-04-16T11:08:54.658Z,55.16
2023-04-16T11:10:04.384Z,53.78
2023-04-16T11:11:07.764Z,55.07
2023-04-16T11:12:14.391Z,54.52
2023-04-16T11:13:18.209Z,56.09
2023-04-16T11:14:21.486Z,54.42
2023-04-16T11:15:25.229Z,53.73
2023-04-16T11:16:28.582Z,53.00
2023-04-16T11:17:38.022Z,53.38
2023-04-16T11:18:50.715Z,54.69
2023-04-16T11:19:54.686Z,54.10
2023-04-16T11:20:57.812Z,53.97
2023-04-16T11:22:01.359Z,52.35
2023-04-16T11:23:04.255Z,49.75
2023-04-16T11:24:07.438Z,51.65
2023-04-16T11:25:10.829Z,51.79
2023-04-16T11:26:27.679Z,51.18
2023-04-16T11:27:32.638Z,50.86
2023-04-16T11:28:37.196Z,51.16
2023-04-16T11:29:40.014Z,50.54
2023-04-16T11:30:42.972Z,51.54
2023-04-16T11:31:54.995Z,51.22
2023-04-16T11:32:58.176Z,51.28
2023-04-16T11:34:02.254Z,50.61
2023-04-16T11:35:14.249Z,49.71
2023-04-16T11:36:17.251Z,50.41
2023-04-16T11:37:35.286Z,51.90
2023-04-16T11:38:39.099Z,52.24
2023-04-16T11:39:54.433Z,51.77
2023-04-16T11:40:57.465Z,51.87
2023-04-16T11:42:00.328Z,51.33
2023-04-16T11:43:23.608Z,52.18
2023-04-16T11:44:29.210Z,52.70
2023-04-16T11:45:32.421Z,51.29
2023-04-16T11:46:42.604Z,52.30
2023-04-16T11:47:53.195Z,51.39
2023-04-16T11:48:59.586Z,51.95
2023-04-16T11:50:23.073Z,51.62
2023-04-16T11:51:26.124Z,51.38
2023-04-16T11:52:34.025Z,52.12
2023-04-16T11:53:38.139Z,51.14
2023-04-16T11:54:40.998Z,50.65
2023-04-16T11:55:47.149Z,51.12
2023-04-16T11:56:53.140Z,49.33
2023-04-16T11:57:56.060Z,50.36
2023-04-16T11:59:12.562Z,50.27
2023-04-16T12:00:16.570Z,50.11
2023-04-16T12:01:22.662Z,49.83
2023-04-16T12:02:41.627Z,48.39
2023-04-16T12:03:50.975Z,48.87
2023-04-16T12:04:54.262Z,50.76
2023-04-16T12:06:09.181Z,51.36
2023-04-16T12:07:16.173Z,50.95
2023-04-16T12:08:32.069Z,51.13
2023-04-16T12:09:38.670Z,51.29
2023-04-16T12:10:56.661Z,51.10
2023-04-16T12:11:59.585Z,51.27
2023-04-16T12:13:16.973Z,49.01
2023-04-16T12:14:20.520Z,49.50
2023-04-16T12:15:23.393Z,48.55
2023-04-16T12:16:27.512Z,48.82
2023-04-16T12:17:32.417Z,50.21
2023-04-16T12:18:35.276Z,49.90
2023-04-16T12:19:52.953Z,50.34
2023-04-16T12:20:55.990Z,50.32
2023-04-16T12:22:02.309Z,49.57
2023-04-16T12:23:05.225Z,50.53
2023-04-16T12:24:09.266Z,49.94
2023-04-16T12:25:13.608Z,50.65
2023-04-16T12:26:16.816Z,50.11
2023-04-16T12:27:19.638Z,50.20
2023-04-16T12:28:34.616Z,50.17
2023-04-16T12:29:39.958Z,50.60
2023-04-16T12:30:54.437Z,49.89
2023-04-16T12:31:57.524Z,49.72
2023-04-16T12:33:19.814Z,50.17
2023-04-16T12:34:27.742Z,50.03
2023-04-16T12:35:46.476Z,48.52
2023-04-16T12:36:50.869Z,48.11
2023-04-16T12:37:53.704Z,48.66
2023-04-16T12:38:56.687Z,49.10
2023-04-16T12:39:59.557Z,49.64
2023-04-16T12:41:03.474Z,49.69
2023-04-16T12:42:07.675Z,49.92
2023-04-16T12:43:11.780Z,49.24
2023-04-16T12:44:19.190Z,50.02
2023-04-16T12:45:22.122Z,49.05
2023-04-16T12:46:25.047Z,49.49
2023-04-16T12:47:28.041Z,49.30
2023-04-16T12:48:30.873Z,48.30
2023-04-16T12:49:34.027Z,48.81
2023-04-16T12:50:37.061Z,48.86
2023-04-16T12:51:40.563Z,50.20
2023-04-16T12:52:43.464Z,50.59
2023-04-16T12:53:46.340Z,51.38
2023-04-16T12:54:49.207Z,50.87
2023-04-16T12:55:52.228Z,50.61
2023-04-16T12:56:55.064Z,51.39
2023-04-16T12:57:57.986Z,50.35
2023-04-16T12:59:00.971Z,50.09
2023-04-16T13:00:03.897Z,49.83
2023-04-16T13:01:06.930Z,49.76
2023-04-16T13:02:09.912Z,49.12
2023-04-16T13:03:13.027Z,50.05
2023-04-16T13:04:16.245Z,50.53
2023-04-16T13:05:20.473Z,51.07
2023-04-16T13:06:23.534Z,51.48
2023-04-16T13:07:28.014Z,51.69
2023-04-16T13:08:31.125Z,51.68
2023-04-16T13:09:33.979Z,50.56
2023-04-16T13:10:37.076Z,51.12
2023-04-16T13:11:40.006Z,50.51
2023-04-16T13:12:42.821Z,50.49
2023-04-16T13:13:48.816Z,50.02
2023-04-16T13:14:51.761Z,50.15
2023-04-16T13:15:54.907Z,47.97
2023-04-16T13:16:57.765Z,47.67
2023-04-16T13:18:00.682Z,48.10
2023-04-16T13:19:03.543Z,48.68
2023-04-16T13:20:06.940Z,50.52
2023-04-16T13:21:09.848Z,49.95
2023-04-16T13:22:12.904Z,50.25
2023-04-16T13:23:15.832Z,49.98
2023-04-16T13:24:18.838Z,50.46
2023-04-16T13:25:21.858Z,50.08
2023-04-16T13:26:24.726Z,48.60
2023-04-16T13:27:27.929Z,48.14
2023-04-16T13:28:30.903Z,48.27
2023-04-16T13:29:33.797Z,49.14
2023-04-16T13:30:36.848Z,47.67
2023-04-16T13:31:39.995Z,46.97
2023-04-16T13:32:42.892Z,47.01
2023-04-16T13:33:45.825Z,47.03
2023-04-16T13:34:48.796Z,47.32
2023-04-16T13:35:51.913Z,48.34
2023-04-16T13:36:54.769Z,46.71
2023-04-16T13:37:57.663Z,47.35
2023-04-16T13:39:00.986Z,47.53
2023-04-16T13:40:03.834Z,46.54
2023-04-16T13:41:07.381Z,47.97
2023-04-16T13:42:10.339Z,47.75
2023-04-16T13:43:14.945Z,46.46
2023-04-16T13:44:17.780Z,46.14
2023-04-16T13:45:21.914Z,46.52
2023-04-16T13:46:24.965Z,46.24
2023-04-16T13:47:27.964Z,45.99
2023-04-16T13:48:30.917Z,46.38
2023-04-16T13:49:36.331Z,45.78